createdAt,value
2022-10-20T00:00:41.126Z,67.07
2022-10-20T00:01:41.137Z,67.29
2022-10-20T00:02:41.167Z,66.27
2022-10-20T00:03:41.102Z,66.48
2022-10-20T00:04:41.139Z,66.59
2022-10-20T00:05:41.076Z,66.16
2022-10-20T00:06:41.106Z,66.96
2022-10-20T00:07:41.182Z,66.91
2022-10-20T00:08:41.109Z,67.73
2022-10-20T00:09:41.113Z,67.51
2022-10-20T00:10:41.055Z,68.11
2022-10-20T00:11:41.092Z,68.79
2022-10-20T00:12:41.003Z,68.62
2022-10-20T00:13:40.990Z,67.84
2022-10-20T00:14:40.978Z,67.95
2022-10-20T00:15:41.064Z,67.45
2022-10-20T00:16:40.956Z,67.73
2022-10-20T00:17:40.977Z,67.89
2022-10-20T00:18:41.020Z,67.62
2022-10-20T00:19:40.944Z,67.45
2022-10-20T00:20:40.921Z,67.07
2022-10-20T00:21:40.985Z,66.11
2022-10-20T00:22:40.902Z,66.37
2022-10-20T00:23:40.897Z,65.85
2022-10-20T00:24:40.938Z,65.80
2022-10-20T00:25:40.866Z,66.80
2022-10-20T00:26:40.921Z,66.96
2022-10-20T00:27:40.863Z,67.67
2022-10-20T00:28:40.855Z,69.25
2022-10-20T00:29:40.839Z,68.56
2022-10-20T00:30:40.841Z,69.13
2022-10-20T00:31:40.890Z,68.68
2022-10-20T00:32:40.792Z,67.62
2022-10-20T00:33:40.802Z,67.51
2022-10-20T00:34:40.771Z,67.51
2022-10-20T00:35:40.798Z,67.40
2022-10-20T00:36:40.762Z,66.22
2022-10-20T00:37:40.832Z,65.80
2022-10-20T00:38:40.729Z,65.80
2022-10-20T00:39:40.786Z,66.00
2022-10-20T00:40:40.722Z,65.28
2022-10-20T00:41:40.718Z,65.85
2022-10-20T00:42:40.745Z,66.27
2022-10-20T00:43:40.689Z,67.34
2022-10-20T00:44:40.679Z,67.23
2022-10-20T00:45:40.662Z,67.07
2022-10-20T00:46:40.706Z,67.23
2022-10-20T00:47:40.708Z,67.56
2022-10-20T00:48:40.674Z,68.85
2022-10-20T00:49:40.687Z,69.08
2022-10-20T00:50:40.630Z,68.45
2022-10-20T00:51:40.599Z,68.90
2022-10-20T00:52:40.593Z,68.45
2022-10-20T00:53:40.581Z,69.31
2022-10-20T00:54:40.660Z,69.13
2022-10-20T00:55:40.563Z,69.08
2022-10-20T00:56:40.549Z,69.36
2022-10-20T00:57:40.589Z,70.01
2022-10-20T00:58:40.532Z,69.89
2022-10-20T00:59:40.599Z,70.13
2022-10-20T01:00:40.543Z,70.13
2022-10-20T01:01:40.556Z,70.96
2022-10-20T01:02:40.541Z,70.72
2022-10-20T01:03:40.490Z,70.96
2022-10-20T01:04:40.476Z,70.36
2022-10-20T01:05:40.536Z,70.72
2022-10-20T01:06:40.445Z,70.66
2022-10-20T01:07:40.496Z,71.57
2022-10-20T01:08:40.458Z,70.60
2022-10-20T01:09:40.464Z,71.51
2022-10-20T01:10:40.413Z,71.95
2022-10-20T01:11:40.429Z,71.95
2022-10-20T01:12:40.406Z,71.45
2022-10-20T01:13:40.434Z,71.57
2022-10-20T01:14:40.389Z,72.51
2022-10-20T01:15:40.386Z,72.32
2022-10-20T01:16:40.362Z,71.51
2022-10-20T01:17:40.342Z,71.08
2022-10-20T01:18:40.381Z,71.33
2022-10-20T01:19:40.347Z,71.57
2022-10-20T01:20:40.322Z,71.64
2022-10-20T01:21:40.295Z,72.26
2022-10-20T01:22:40.327Z,72.64
2022-10-20T01:23:40.289Z,73.67
2022-10-20T01:24:40.311Z,73.41
2022-10-20T01:25:40.255Z,73.21
2022-10-20T01:26:40.273Z,73.02
2022-10-20T01:27:40.416Z,72.51
2022-10-20T01:28:40.239Z,72.77
2022-10-20T01:29:40.263Z,73.21
2022-10-20T01:30:40.271Z,72.57
2022-10-20T01:31:40.261Z,72.20
2022-10-20T01:32:40.215Z,71.64
2022-10-20T01:33:40.198Z,71.45
2022-10-20T01:34:40.175Z,71.08
2022-10-20T01:35:40.219Z,70.84
2022-10-20T01:36:40.186Z,70.60
2022-10-20T01:37:49.008Z,70.24
2022-10-20T01:38:40.132Z,70.42
2022-10-20T01:39:40.133Z,69.25
2022-10-20T01:40:40.104Z,68.56
2022-10-20T01:41:40.175Z,68.62
2022-10-20T01:42:40.302Z,68.28
2022-10-20T01:43:40.088Z,69.13
2022-10-20T01:44:40.094Z,68.79
2022-10-20T01:45:40.064Z,69.19
2022-10-20T01:46:40.075Z,69.95
2022-10-20T01:47:40.100Z,70.18
2022-10-20T01:48:40.087Z,70.24
2022-10-20T01:49:40.021Z,70.54
2022-10-20T01:50:40.059Z,70.90
2022-10-20T01:52:39.996Z,71.21
2022-10-20T01:53:40.026Z,70.78
2022-10-20T01:54:39.962Z,70.48
2022-10-20T01:55:39.959Z,70.36
2022-10-20T01:56:39.995Z,70.42
2022-10-20T01:57:39.981Z,70.54
2022-10-20T01:58:39.934Z,70.54
2022-10-20T01:59:39.974Z,70.13
2022-10-20T02:00:39.919Z,69.77
2022-10-20T02:01:39.960Z,69.95
2022-10-20T02:02:39.970Z,69.31
2022-10-20T02:03:39.962Z,67.89
2022-10-20T02:04:39.866Z,68.11
2022-10-20T02:05:39.875Z,67.78
2022-10-20T02:06:39.854Z,67.67
2022-10-20T02:07:39.829Z,67.29
2022-10-20T02:08:39.931Z,67.02
2022-10-20T02:09:39.858Z,66.91
2022-10-20T02:10:39.899Z,66.59
2022-10-20T02:11:39.804Z,66.11
2022-10-20T02:12:39.911Z,65.74
2022-10-20T02:13:39.766Z,65.13
2022-10-20T02:14:39.829Z,64.77
2022-10-20T02:15:39.773Z,64.32
2022-10-20T02:16:39.791Z,63.39
2022-10-20T02:17:39.760Z,62.58
2022-10-20T02:18:39.770Z,62.02
2022-10-20T02:19:39.715Z,61.28
2022-10-20T02:20:39.714Z,60.79
2022-10-20T02:21:39.777Z,60.13
2022-10-20T02:22:39.699Z,59.57
2022-10-20T02:23:39.668Z,59.19
2022-10-20T02:24:39.733Z,58.81
2022-10-20T02:25:39.645Z,58.69
2022-10-20T02:26:39.727Z,58.44
2022-10-20T02:27:39.651Z,58.48
2022-10-20T02:28:39.666Z,58.28
2022-10-20T02:29:39.625Z,58.20
2022-10-20T02:30:39.619Z,57.91
2022-10-20T02:31:39.594Z,57.43
2022-10-20T02:32:39.802Z,57.31
2022-10-20T02:33:39.566Z,57.00
2022-10-20T02:34:42.407Z,57.04
2022-10-20T02:35:39.635Z,56.92
2022-10-20T02:36:39.551Z,57.08
2022-10-20T02:37:39.872Z,56.69
2022-10-20T02:38:39.532Z,56.65
2022-10-20T02:39:39.522Z,56.46
2022-10-20T02:40:39.502Z,56.00
2022-10-20T02:41:39.541Z,56.15
2022-10-20T02:42:39.528Z,56.04
2022-10-20T02:43:39.481Z,56.26
2022-10-20T02:44:39.464Z,56.15
2022-10-20T02:45:39.528Z,56.34
2022-10-20T02:46:39.442Z,56.08
2022-10-20T02:47:39.785Z,56.00
2022-10-20T02:48:39.505Z,56.11
2022-10-20T02:49:39.404Z,55.85
2022-10-20T02:50:39.402Z,55.89
2022-10-20T02:51:39.456Z,55.85
2022-10-20T02:52:39.449Z,55.40
2022-10-20T02:53:39.370Z,55.29
2022-10-20T02:54:39.368Z,55.48
2022-10-20T02:55:39.351Z,55.33
2022-10-20T02:56:39.367Z,55.40
2022-10-20T02:57:39.708Z,55.18
2022-10-20T02:58:39.382Z,55.11
2022-10-20T02:59:39.370Z,55.26
2022-10-20T03:00:39.308Z,55.15
2022-10-20T03:01:39.364Z,55.22
2022-10-20T03:02:39.282Z,54.96
2022-10-20T03:03:39.317Z,54.93
2022-10-20T03:04:39.260Z,55.15
2022-10-20T03:05:39.307Z,55.22
2022-10-20T03:06:39.289Z,54.93
2022-10-20T03:07:39.331Z,55.26
2022-10-20T03:08:39.284Z,55.11
2022-10-20T03:09:39.254Z,54.96
2022-10-20T03:10:39.209Z,54.89
2022-10-20T03:11:39.198Z,54.85
2022-10-20T03:12:39.182Z,54.78
2022-10-20T03:13:39.175Z,54.67
2022-10-20T03:14:39.205Z,55.04
2022-10-20T03:15:39.190Z,54.78
2022-10-20T03:16:39.141Z,55.00
2022-10-20T03:17:39.348Z,54.67
2022-10-20T03:18:39.140Z,54.67
2022-10-20T03:19:39.103Z,54.75
2022-10-20T03:20:39.097Z,54.82
2022-10-20T03:21:39.094Z,54.82
2022-10-20T03:22:39.078Z,54.71
2022-10-20T03:23:39.113Z,54.75
2022-10-20T03:24:39.066Z,54.64
2022-10-20T03:25:39.052Z,54.60
2022-10-20T03:26:39.037Z,54.42
2022-10-20T03:27:39.328Z,54.42
2022-10-20T03:28:39.063Z,54.49
2022-10-20T03:29:39.025Z,54.10
2022-10-20T03:30:39.002Z,54.03
2022-10-20T03:31:39.038Z,53.89
2022-10-20T03:32:39.348Z,54.10
2022-10-20T03:33:39.009Z,54.00
2022-10-20T03:34:39.017Z,54.03
2022-10-20T03:35:38.969Z,54.00
2022-10-20T03:36:38.940Z,54.07
2022-10-20T03:37:38.924Z,54.03
2022-10-20T03:38:39.013Z,54.14
2022-10-20T03:39:38.933Z,53.89
2022-10-20T03:40:38.953Z,54.00
2022-10-20T03:41:39.048Z,54.10
2022-10-20T03:42:39.085Z,53.82
2022-10-20T03:43:38.859Z,53.79
2022-10-20T03:44:38.862Z,53.96
2022-10-20T03:45:38.873Z,53.93
2022-10-20T03:46:38.851Z,53.86
2022-10-20T03:47:38.900Z,53.86
2022-10-20T03:48:38.826Z,54.10
2022-10-20T03:49:38.797Z,53.96
2022-10-20T03:50:38.793Z,54.10
2022-10-20T03:51:38.825Z,53.86
2022-10-20T03:52:39.119Z,53.89
2022-10-20T03:53:38.759Z,53.86
2022-10-20T03:54:38.798Z,53.82
2022-10-20T03:55:38.746Z,53.62
2022-10-20T03:56:38.792Z,53.72
2022-10-20T03:57:39.033Z,53.55
2022-10-20T03:58:38.714Z,53.41
2022-10-20T03:59:38.697Z,53.58
2022-10-20T04:00:38.737Z,53.27
2022-10-20T04:01:38.720Z,53.24
2022-10-20T04:02:39.115Z,53.24
2022-10-20T04:03:38.656Z,53.27
2022-10-20T04:04:38.686Z,53.14
2022-10-20T04:05:38.762Z,53.24
2022-10-20T04:06:38.707Z,53.14
2022-10-20T04:07:38.623Z,53.07
2022-10-20T04:08:38.655Z,53.10
2022-10-20T04:09:38.596Z,53.00
2022-10-20T04:10:38.648Z,53.03
2022-10-20T04:11:38.631Z,53.10
2022-10-20T04:12:39.107Z,53.24
2022-10-20T04:13:38.564Z,53.14
2022-10-20T04:14:38.557Z,52.83
2022-10-20T04:15:38.543Z,52.80
2022-10-20T04:16:38.612Z,52.93
2022-10-20T04:18:38.534Z,52.67
2022-10-20T04:19:38.501Z,52.73
2022-10-20T04:20:40.706Z,52.70
2022-10-20T04:21:38.487Z,52.83
2022-10-20T04:22:38.901Z,52.90
2022-10-20T04:23:38.491Z,52.67
2022-10-20T04:24:38.496Z,52.40
2022-10-20T04:25:38.493Z,52.53
2022-10-20T04:26:38.490Z,52.50
2022-10-20T04:27:38.642Z,52.67
2022-10-20T04:28:38.416Z,52.70
2022-10-20T04:29:38.449Z,52.47
2022-10-20T04:30:38.398Z,52.43
2022-10-20T04:31:38.437Z,52.24
2022-10-20T04:32:38.370Z,52.24
2022-10-20T04:33:38.366Z,52.01
2022-10-20T04:34:38.403Z,52.04
2022-10-20T04:35:38.366Z,51.97
2022-10-20T04:36:38.364Z,51.84
2022-10-20T04:37:38.687Z,51.81
2022-10-20T04:38:38.384Z,51.88
2022-10-20T04:39:38.317Z,51.88
2022-10-20T04:40:38.290Z,51.94
2022-10-20T04:41:38.350Z,52.01
2022-10-20T04:42:38.274Z,52.01
2022-10-20T04:43:38.259Z,52.17
2022-10-20T04:44:38.252Z,52.07
2022-10-20T04:45:38.301Z,51.81
2022-10-20T04:46:38.273Z,51.91
2022-10-20T04:47:38.766Z,51.68
2022-10-20T04:48:38.221Z,51.84
2022-10-20T04:49:38.192Z,51.72
2022-10-20T04:50:38.251Z,51.75
2022-10-20T04:51:38.175Z,51.84
2022-10-20T04:52:38.234Z,51.88
2022-10-20T04:53:38.173Z,51.81
2022-10-20T04:54:38.205Z,52.17
2022-10-20T04:55:38.142Z,51.97
2022-10-20T04:56:38.136Z,51.72
2022-10-20T04:57:38.386Z,52.10
2022-10-20T04:58:38.114Z,51.94
2022-10-20T04:59:38.150Z,52.01
2022-10-20T05:00:38.125Z,51.94
2022-10-20T05:01:38.137Z,51.94
2022-10-20T05:02:38.089Z,52.01
2022-10-20T05:03:38.052Z,52.14
2022-10-20T05:04:38.096Z,51.94
2022-10-20T05:05:38.041Z,52.10
2022-10-20T05:06:38.031Z,52.07
2022-10-20T05:07:38.502Z,52.10
2022-10-20T05:08:38.068Z,51.81
2022-10-20T05:09:38.038Z,52.01
2022-10-20T05:10:37.985Z,51.94
2022-10-20T05:11:37.992Z,51.84
2022-10-20T05:12:38.400Z,51.88
2022-10-20T05:13:37.953Z,51.94
2022-10-20T05:14:38.009Z,51.68
2022-10-20T05:15:37.948Z,51.59
2022-10-20T05:16:37.930Z,51.55
2022-10-20T05:17:37.976Z,51.40
2022-10-20T05:18:37.913Z,51.49
2022-10-20T05:19:37.950Z,51.24
2022-10-20T05:20:41.333Z,51.43
2022-10-20T05:21:37.946Z,51.36
2022-10-20T05:22:38.173Z,51.40
2022-10-20T05:23:37.807Z,51.52
2022-10-20T05:24:37.883Z,51.40
2022-10-20T05:25:37.788Z,51.43
2022-10-20T05:26:37.831Z,51.33
2022-10-20T05:27:37.775Z,51.36
2022-10-20T05:28:37.761Z,51.40
2022-10-20T05:29:37.753Z,51.33
2022-10-20T05:30:37.831Z,51.27
2022-10-20T05:31:37.723Z,51.33
2022-10-20T05:32:38.100Z,51.30
2022-10-20T05:33:37.693Z,51.27
2022-10-20T05:34:37.747Z,51.24
2022-10-20T05:35:37.685Z,51.68
2022-10-20T05:36:37.677Z,51.59
2022-10-20T05:37:37.664Z,51.49
2022-10-20T05:38:37.673Z,51.65
2022-10-20T05:39:37.746Z,51.72
2022-10-20T05:40:37.632Z,51.49
2022-10-20T05:41:39.035Z,51.59
2022-10-20T05:42:37.993Z,51.55
2022-10-20T05:43:37.636Z,51.46
2022-10-20T05:44:37.638Z,51.62
2022-10-20T05:45:37.588Z,51.62
2022-10-20T05:46:37.582Z,51.36
2022-10-20T05:47:37.555Z,51.62
2022-10-20T05:48:42.832Z,51.49
2022-10-20T05:49:37.593Z,51.36
2022-10-20T05:50:37.576Z,51.46
2022-10-20T05:51:37.563Z,51.30
2022-10-20T05:52:38.115Z,51.30
2022-10-20T05:53:37.504Z,51.24
2022-10-20T05:54:37.519Z,51.30
2022-10-20T05:55:37.485Z,51.30
2022-10-20T05:56:37.483Z,51.17
2022-10-20T05:57:37.479Z,51.27
2022-10-20T05:58:37.505Z,51.21
2022-10-20T05:59:37.444Z,51.17
2022-10-20T06:00:37.435Z,51.27
2022-10-20T06:01:37.457Z,51.43
2022-10-20T06:02:37.721Z,51.11
2022-10-20T06:03:37.437Z,51.14
2022-10-20T06:04:37.473Z,51.17
2022-10-20T06:05:37.539Z,51.05
2022-10-20T06:06:37.414Z,50.92
2022-10-20T06:07:37.385Z,50.99
2022-10-20T06:08:37.580Z,50.95
2022-10-20T06:09:37.440Z,51.14
2022-10-20T06:10:37.436Z,50.92
2022-10-20T06:11:39.536Z,50.95
2022-10-20T06:12:37.645Z,50.92
2022-10-20T06:13:37.305Z,50.92
2022-10-20T06:14:37.363Z,51.05
2022-10-20T06:15:37.285Z,51.08
2022-10-20T06:16:37.279Z,50.89
2022-10-20T06:17:37.266Z,50.80
2022-10-20T06:18:37.306Z,50.86
2022-10-20T06:19:37.237Z,50.89
2022-10-20T06:20:37.231Z,50.83
2022-10-20T06:21:37.315Z,50.64
2022-10-20T06:22:37.497Z,50.92
2022-10-20T06:23:37.360Z,50.80
2022-10-20T06:24:37.241Z,50.71
2022-10-20T06:25:37.181Z,50.71
2022-10-20T06:26:37.184Z,50.52
2022-10-20T06:27:37.218Z,50.55
2022-10-20T06:28:37.150Z,50.64
2022-10-20T06:29:37.143Z,50.49
2022-10-20T06:30:37.347Z,50.40
2022-10-20T06:31:37.120Z,50.52
2022-10-20T06:32:37.343Z,50.52
2022-10-20T06:33:37.170Z,50.49
2022-10-20T06:34:37.110Z,50.49
2022-10-20T06:35:37.090Z,50.46
2022-10-20T06:36:37.085Z,50.46
2022-10-20T06:37:37.131Z,50.46
2022-10-20T06:38:37.040Z,50.43
2022-10-20T06:39:37.040Z,50.34
2022-10-20T06:40:37.026Z,50.58
2022-10-20T06:41:37.055Z,50.37
2022-10-20T06:42:37.429Z,50.28
2022-10-20T06:43:36.997Z,50.25
2022-10-20T06:44:37.002Z,50.46
2022-10-20T06:45:36.981Z,50.37
2022-10-20T06:46:37.021Z,50.34
2022-10-20T06:47:37.120Z,50.28
2022-10-20T06:48:36.945Z,50.34
2022-10-20T06:49:36.985Z,50.22
2022-10-20T06:50:36.942Z,50.19
2022-10-20T06:51:36.919Z,50.03
2022-10-20T06:52:37.191Z,50.00
2022-10-20T06:53:36.893Z,49.97
2022-10-20T06:54:36.963Z,49.79
2022-10-20T06:55:36.899Z,49.82
2022-10-20T06:56:36.860Z,49.71
2022-10-20T06:57:36.895Z,49.82
2022-10-20T06:58:36.840Z,49.79
2022-10-20T06:59:36.840Z,49.59
2022-10-20T07:00:36.860Z,49.59
2022-10-20T07:01:37.005Z,49.50
2022-10-20T07:02:37.121Z,49.47
2022-10-20T07:03:36.815Z,49.35
2022-10-20T07:04:36.809Z,48.74
2022-10-20T07:05:36.793Z,48.80
2022-10-20T07:06:36.797Z,48.69
2022-10-20T07:08:36.833Z,48.63
2022-10-20T07:09:36.787Z,48.77
2022-10-20T07:10:36.795Z,48.66
2022-10-20T07:11:36.738Z,48.54
2022-10-20T07:12:37.153Z,48.89
2022-10-20T07:13:36.788Z,48.69
2022-10-20T07:14:36.984Z,48.66
2022-10-20T07:15:36.768Z,48.74
2022-10-20T07:16:36.741Z,48.43
2022-10-20T07:17:36.895Z,48.40
2022-10-20T07:18:36.705Z,48.80
2022-10-20T07:19:36.634Z,48.77
2022-10-20T07:20:36.803Z,48.40
2022-10-20T07:21:39.136Z,48.29
2022-10-20T07:22:37.178Z,48.29
2022-10-20T07:23:36.587Z,47.93
2022-10-20T07:24:36.619Z,48.57
2022-10-20T07:25:36.572Z,48.23
2022-10-20T07:26:36.599Z,47.71
2022-10-20T07:27:36.554Z,47.98
2022-10-20T07:28:36.549Z,48.29
2022-10-20T07:29:36.580Z,47.35
2022-10-20T07:30:36.528Z,47.17
2022-10-20T07:31:36.513Z,47.63
2022-10-20T07:32:36.916Z,47.27
2022-10-20T07:33:36.509Z,47.63
2022-10-20T07:34:36.519Z,47.46
2022-10-20T07:35:36.513Z,47.06
2022-10-20T07:36:36.460Z,47.27
2022-10-20T07:37:36.787Z,47.27
2022-10-20T07:38:36.441Z,47.30
2022-10-20T07:39:36.441Z,46.96
2022-10-20T07:40:36.423Z,47.49
2022-10-20T07:41:36.503Z,47.01
2022-10-20T07:42:36.627Z,46.95
2022-10-20T07:43:36.448Z,46.75
2022-10-20T07:44:36.374Z,46.98
2022-10-20T07:45:36.374Z,47.19
2022-10-20T07:46:36.400Z,47.01
2022-10-20T07:47:38.602Z,47.06
2022-10-20T07:48:36.349Z,46.87
2022-10-20T07:49:44.017Z,47.19
2022-10-20T07:50:36.332Z,46.80
2022-10-20T07:51:36.309Z,47.12
2022-10-20T07:52:36.691Z,46.80
2022-10-20T07:53:36.341Z,46.69
2022-10-20T07:54:36.295Z,46.59
2022-10-20T07:55:38.911Z,46.38
2022-10-20T07:56:36.300Z,46.59
2022-10-20T07:57:36.318Z,46.54
2022-10-20T07:58:36.246Z,46.33
2022-10-20T07:59:36.221Z,46.69
2022-10-20T08:00:36.289Z,46.85
2022-10-20T08:01:36.279Z,46.59
2022-10-20T08:02:36.525Z,46.85
2022-10-20T08:03:36.190Z,46.75
2022-10-20T08:04:36.224Z,46.54
2022-10-20T08:05:36.210Z,46.59
2022-10-20T08:06:36.172Z,46.43
2022-10-20T08:07:36.248Z,46.43
2022-10-20T08:08:36.166Z,46.59
2022-10-20T08:09:36.195Z,46.49
2022-10-20T08:10:36.119Z,46.38
2022-10-20T08:11:36.106Z,46.23
2022-10-20T08:12:36.430Z,46.38
2022-10-20T08:13:36.083Z,46.23
2022-10-20T08:14:36.066Z,46.49
2022-10-20T08:15:36.131Z,46.17
2022-10-20T08:16:37.454Z,46.38
2022-10-20T08:17:36.146Z,46.17
2022-10-20T08:18:36.069Z,46.12
2022-10-20T08:19:37.953Z,46.38
2022-10-20T08:20:36.044Z,46.49
2022-10-20T08:21:36.014Z,46.28
2022-10-20T08:22:36.305Z,46.54
2022-10-20T08:23:35.987Z,46.43
2022-10-20T08:24:35.980Z,46.28
2022-10-20T08:25:35.966Z,46.23
2022-10-20T08:26:35.961Z,46.38
2022-10-20T08:27:36.004Z,46.49
2022-10-20T08:28:35.980Z,46.38
2022-10-20T08:29:35.925Z,46.23
2022-10-20T08:30:35.940Z,46.49
2022-10-20T08:31:35.950Z,46.17
2022-10-20T08:32:36.242Z,46.07
2022-10-20T08:33:35.885Z,46.07
2022-10-20T08:34:35.869Z,46.17
2022-10-20T08:35:35.857Z,45.82
2022-10-20T08:36:35.859Z,46.12
2022-10-20T08:37:36.193Z,46.02
2022-10-20T08:38:35.825Z,45.92
2022-10-20T08:39:35.860Z,46.02
2022-10-20T08:40:35.802Z,45.77
2022-10-20T08:41:55.449Z,45.57
2022-10-20T08:42:35.853Z,45.87
2022-10-20T08:43:35.793Z,45.77
2022-10-20T08:44:35.766Z,45.92
2022-10-20T08:45:38.379Z,45.87
2022-10-20T08:46:35.744Z,46.02
2022-10-20T08:47:36.277Z,45.92
2022-10-20T08:48:35.725Z,45.77
2022-10-20T08:49:35.721Z,45.72
2022-10-20T08:50:35.704Z,45.82
2022-10-20T08:51:35.741Z,45.62
2022-10-20T08:52:35.701Z,45.97
2022-10-20T08:53:35.672Z,46.12
2022-10-20T08:54:35.683Z,46.12
2022-10-20T08:55:35.655Z,45.87
2022-10-20T08:56:35.708Z,45.92
2022-10-20T08:57:36.495Z,45.82
2022-10-20T08:58:35.624Z,46.17
2022-10-20T08:59:39.176Z,45.77
2022-10-20T09:00:35.642Z,45.47
2022-10-20T09:01:35.718Z,45.37
2022-10-20T09:02:35.585Z,45.27
2022-10-20T09:03:35.581Z,45.37
2022-10-20T09:04:35.614Z,45.17
2022-10-20T09:05:35.617Z,45.03
2022-10-20T09:06:35.559Z,45.07
2022-10-20T09:07:35.815Z,44.83
2022-10-20T09:08:35.558Z,45.07
2022-10-20T09:09:35.508Z,44.93
2022-10-20T09:10:35.550Z,45.03
2022-10-20T09:11:35.531Z,44.64
2022-10-20T09:12:35.481Z,44.59
2022-10-20T09:13:35.598Z,44.83
2022-10-20T09:14:35.464Z,44.69
2022-10-20T09:15:35.460Z,44.64
2022-10-20T09:16:42.023Z,44.21
2022-10-20T09:17:35.736Z,44.17
2022-10-20T09:18:35.416Z,44.07
2022-10-20T09:19:35.414Z,44.12
2022-10-20T09:20:35.401Z,43.89
2022-10-20T09:21:35.384Z,43.98
2022-10-20T09:22:36.211Z,43.89
2022-10-20T09:23:41.125Z,43.89
2022-10-20T09:24:35.381Z,43.98
2022-10-20T09:25:35.417Z,44.03
2022-10-20T09:26:57.568Z,44.03
2022-10-20T09:27:35.710Z,43.84
2022-10-20T09:28:49.214Z,43.70
2022-10-20T09:29:35.316Z,43.56
2022-10-20T09:30:35.349Z,43.47
2022-10-20T09:31:35.347Z,43.29
2022-10-20T09:32:50.627Z,43.16
2022-10-20T09:33:35.319Z,43.25
2022-10-20T09:34:35.304Z,43.11
2022-10-20T09:35:35.259Z,43.16
2022-10-20T09:36:35.257Z,43.07
2022-10-20T09:37:35.337Z,43.20
2022-10-20T09:38:35.218Z,43.34
2022-10-20T09:39:35.221Z,43.52
2022-10-20T09:40:35.192Z,43.56
2022-10-20T09:41:35.190Z,43.16
2022-10-20T09:42:35.456Z,42.85
2022-10-20T09:43:35.212Z,42.89
2022-10-20T09:44:35.159Z,42.58
2022-10-20T09:45:35.175Z,42.76
2022-10-20T09:46:35.129Z,42.85
2022-10-20T09:47:35.133Z,42.89
2022-10-20T09:48:35.138Z,42.89
2022-10-20T09:49:35.168Z,43.11
2022-10-20T09:50:35.113Z,43.16
2022-10-20T09:51:35.127Z,43.11
2022-10-20T09:52:35.399Z,43.11
2022-10-20T09:53:35.114Z,43.20
2022-10-20T09:54:35.050Z,43.02
2022-10-20T09:55:35.063Z,42.98
2022-10-20T09:56:35.039Z,42.71
2022-10-20T09:57:35.046Z,42.80
2022-10-20T09:58:35.056Z,42.67
2022-10-20T09:59:35.015Z,42.45
2022-10-20T10:00:37.679Z,42.76
2022-10-20T10:01:35.010Z,42.71
2022-10-20T10:02:35.323Z,42.54
2022-10-20T10:03:34.962Z,42.50
2022-10-20T10:04:34.991Z,42.63
2022-10-20T10:05:34.958Z,42.50
2022-10-20T10:06:34.961Z,42.50
2022-10-20T10:07:34.943Z,42.50
2022-10-20T10:08:34.958Z,42.28
2022-10-20T10:09:35.002Z,42.41
2022-10-20T10:10:34.890Z,42.28
2022-10-20T10:11:34.882Z,42.24
2022-10-20T10:12:35.179Z,42.19
2022-10-20T10:13:34.902Z,42.19
2022-10-20T10:14:34.915Z,41.85
2022-10-20T10:15:34.937Z,41.98
2022-10-20T10:16:34.866Z,42.11
2022-10-20T10:17:35.121Z,42.28
2022-10-20T10:18:34.803Z,42.15
2022-10-20T10:19:34.845Z,42.37
2022-10-20T10:20:34.804Z,42.50
2022-10-20T10:21:34.831Z,42.37
2022-10-20T10:22:35.082Z,42.41
2022-10-20T10:23:34.763Z,42.11
2022-10-20T10:24:34.767Z,42.28
2022-10-20T10:25:34.779Z,42.41
2022-10-20T10:26:34.749Z,42.76
2022-10-20T10:27:34.721Z,42.67
2022-10-20T10:28:34.704Z,42.63
2022-10-20T10:29:34.698Z,42.50
2022-10-20T10:30:34.752Z,42.45
2022-10-20T10:31:34.679Z,42.76
2022-10-20T10:32:34.977Z,42.63
2022-10-20T10:33:34.655Z,42.58
2022-10-20T10:34:34.706Z,42.28
2022-10-20T10:35:34.653Z,42.41
2022-10-20T10:36:34.622Z,42.45
2022-10-20T10:37:35.270Z,42.24
2022-10-20T10:38:34.608Z,42.32
2022-10-20T10:39:34.624Z,42.32
2022-10-20T10:40:34.644Z,42.89
2022-10-20T10:41:34.578Z,43.11
2022-10-20T10:42:34.923Z,42.85
2022-10-20T10:43:35.456Z,43.07
2022-10-20T10:44:34.552Z,43.02
2022-10-20T10:45:34.580Z,43.07
2022-10-20T10:46:34.569Z,42.67
2022-10-20T10:47:37.845Z,42.89
2022-10-20T10:48:34.551Z,42.76
2022-10-20T10:49:34.649Z,42.63
2022-10-20T10:50:34.485Z,42.54
2022-10-20T10:51:34.472Z,42.58
2022-10-20T10:52:34.460Z,42.54
2022-10-20T10:53:34.457Z,42.71
2022-10-20T10:54:34.487Z,42.98
2022-10-20T10:55:48.279Z,42.89
2022-10-20T10:56:34.451Z,43.29
2022-10-20T10:57:34.668Z,43.29
2022-10-20T10:58:34.411Z,43.47
2022-10-20T10:59:34.408Z,43.65
2022-10-20T11:00:34.494Z,43.43
2022-10-20T11:01:34.378Z,43.38
2022-10-20T11:02:34.664Z,42.76
2022-10-20T11:03:37.622Z,43.02
2022-10-20T11:04:34.348Z,42.89
2022-10-20T11:05:34.350Z,43.02
2022-10-20T11:06:34.362Z,43.52
2022-10-20T11:07:34.551Z,44.31
2022-10-20T11:08:34.340Z,45.07
2022-10-20T11:09:34.333Z,45.47
2022-10-20T11:10:34.325Z,45.67
2022-10-20T11:11:34.322Z,45.52
2022-10-20T11:12:34.258Z,45.72
2022-10-20T11:13:34.250Z,46.33
2022-10-20T11:14:34.300Z,46.43
2022-10-20T11:15:34.231Z,46.69
2022-10-20T11:16:34.216Z,46.93
2022-10-20T11:17:34.483Z,47.03
2022-10-20T11:18:34.196Z,47.14
2022-10-20T11:19:34.179Z,47.25
2022-10-20T11:20:34.189Z,47.41
2022-10-20T11:21:34.162Z,47.68
2022-10-20T11:22:34.220Z,47.06
2022-10-20T11:24:34.134Z,46.59
2022-10-20T11:25:34.119Z,46.43
2022-10-20T11:26:34.136Z,46.49
2022-10-20T11:27:34.488Z,47.06
2022-10-20T11:28:34.152Z,46.98
2022-10-20T11:29:34.079Z,46.93
2022-10-20T11:30:34.078Z,47.17
2022-10-20T11:31:34.068Z,47.71
2022-10-20T11:33:35.771Z,46.87
2022-10-20T11:34:34.035Z,46.90
2022-10-20T11:35:34.018Z,46.43
2022-10-20T11:36:34.069Z,45.97
2022-10-20T11:37:34.423Z,45.97
2022-10-20T11:38:33.999Z,46.28
2022-10-20T11:39:33.982Z,46.64
2022-10-20T11:40:34.078Z,46.54
2022-10-20T11:41:34.004Z,46.43
2022-10-20T11:42:34.231Z,46.02
2022-10-20T11:43:33.949Z,45.57
2022-10-20T11:44:33.941Z,45.32
2022-10-20T11:45:33.969Z,44.88
2022-10-20T11:46:33.910Z,45.12
2022-10-20T11:47:33.945Z,44.78
2022-10-20T11:48:33.897Z,44.69
2022-10-20T11:49:33.924Z,44.74
2022-10-20T11:50:34.490Z,44.69
2022-10-20T11:51:33.861Z,44.69
2022-10-20T11:52:34.178Z,44.88
2022-10-20T11:53:33.831Z,44.83
2022-10-20T11:54:33.834Z,45.07
2022-10-20T11:55:33.885Z,44.69
2022-10-20T11:56:33.821Z,43.84
2022-10-20T11:57:33.804Z,43.70
2022-10-20T11:58:33.786Z,43.11
2022-10-20T11:59:33.774Z,42.94
2022-10-20T12:00:33.774Z,41.94
2022-10-20T12:01:33.871Z,41.81
2022-10-20T12:02:33.932Z,41.35
2022-10-20T12:03:33.734Z,41.35
2022-10-20T12:04:33.733Z,41.60
2022-10-20T12:05:33.715Z,41.73
2022-10-20T12:06:33.730Z,41.90
2022-10-20T12:07:33.769Z,42.19
2022-10-20T12:08:33.746Z,42.85
2022-10-20T12:09:33.678Z,43.84
2022-10-20T12:10:33.667Z,45.47
2022-10-20T12:11:33.664Z,46.49
2022-10-20T12:12:33.854Z,46.87
2022-10-20T12:13:33.685Z,47.65
2022-10-20T12:14:33.631Z,48.63
2022-10-20T12:15:33.611Z,49.09
2022-10-20T12:16:33.673Z,50.09
2022-10-20T12:17:33.587Z,51.27
2022-10-20T12:18:33.599Z,52.76
2022-10-20T12:19:33.630Z,53.34
2022-10-20T12:20:33.572Z,54.21
2022-10-20T12:21:34.482Z,57.79
2022-10-20T12:22:33.726Z,61.65
2022-10-20T12:23:33.544Z,62.06
2022-10-20T12:24:33.523Z,62.53
2022-10-20T12:25:33.566Z,63.39
2022-10-20T12:26:33.548Z,63.83
2022-10-20T12:27:33.489Z,64.77
2022-10-20T12:28:33.516Z,65.49
2022-10-20T12:29:33.467Z,68.56
2022-10-20T12:30:33.478Z,69.83
2022-10-20T12:31:33.551Z,68.06
2022-10-20T12:32:33.593Z,67.67
2022-10-20T12:33:33.427Z,66.37
2022-10-20T12:34:33.425Z,66.37
2022-10-20T12:35:33.454Z,67.51
2022-10-20T12:36:33.404Z,67.89
2022-10-20T12:37:33.511Z,66.86
2022-10-20T12:38:33.427Z,65.90
2022-10-20T12:39:33.422Z,63.19
2022-10-20T12:40:33.402Z,61.92
2022-10-20T12:41:33.400Z,61.69
2022-10-20T12:42:33.389Z,62.39
2022-10-20T12:43:33.335Z,61.92
2022-10-20T12:44:33.324Z,61.83
2022-10-20T12:45:33.319Z,61.38
2022-10-20T12:46:33.983Z,61.97
2022-10-20T12:47:33.435Z,63.15
2022-10-20T12:48:33.335Z,63.44
2022-10-20T12:49:33.368Z,64.07
2022-10-20T12:50:33.276Z,64.12
2022-10-20T12:51:33.293Z,65.74
2022-10-20T12:52:33.248Z,67.23
2022-10-20T12:53:33.229Z,67.62
2022-10-20T12:54:33.274Z,67.89
2022-10-20T12:55:35.046Z,68.79
2022-10-20T12:56:33.213Z,69.19
2022-10-20T12:57:33.181Z,68.96